createdAt,value
2023-08-29T00:15:06.811Z,23.4
2023-08-29T00:43:57.888Z,23.36
2023-08-29T01:12:49.852Z,23.34
2023-08-29T01:41:40.243Z,23.31
2023-08-29T02:10:26.438Z,23.29
2023-08-29T02:39:12.226Z,23.26
2023-08-29T03:07:59.425Z,23.25
2023-08-29T03:36:49.476Z,23.22
2023-08-29T04:05:39.419Z,23.2
2023-08-29T04:34:17.693Z,23.33
2023-08-29T05:03:02.706Z,23.43
2023-08-29T05:31:37.638Z,23.34
2023-08-29T06:00:21.693Z,23.4
2023-08-29T06:29:03.706Z,23.43
2023-08-29T06:57:44.972Z,23.55
2023-08-29T07:26:20.858Z,23.63
2023-08-29T07:54:58.368Z,23.53
2023-08-29T08:23:33.991Z,23.43
2023-08-29T08:52:12.303Z,23.4
2023-08-29T09:20:51.384Z,23.38
2023-08-29T09:49:25.290Z,23.42
2023-08-29T10:18:07.556Z,23.51
2023-08-29T10:46:35.100Z,23.58
2023-08-29T11:15:12.240Z,23.68
2023-08-29T11:43:56.577Z,23.87
2023-08-29T12:12:09.519Z,23.85
2023-08-29T12:40:46.744Z,23.85
2023-08-29T13:09:37.808Z,23.82
2023-08-29T13:37:51.230Z,23.77
2023-08-29T14:06:30.643Z,23.74
2023-08-29T14:35:14.804Z,23.74
2023-08-29T15:03:51.517Z,23.72
2023-08-29T15:32:25.318Z,23.7
2023-08-29T16:01:03.728Z,23.66
2023-08-29T16:29:52.172Z,23.62
2023-08-29T16:58:21.902Z,23.6
2023-08-29T17:27:02.157Z,23.6
2023-08-29T17:55:44.411Z,23.52
2023-08-29T18:24:30.637Z,23.48
2023-08-29T18:53:10.011Z,23.45
2023-08-29T19:21:50.856Z,23.45
2023-08-29T19:50:28.801Z,23.43
2023-08-29T20:19:05.644Z,23.38
2023-08-29T23:11:28.110Z,23.1
2023-08-29T23:40:13.152Z,23.06
